Time;durP1;ratioP1;P1;durP2;ratioP2;P2;SDS_P1;SDS_P2;PMS_P1;PMS_P2;Temp;Humidity;BMP_temperature;BMP_pressure;BME280_temperature;BME280_humidity;BME280_pressure;Samples;Min_cycle;Max_cycle;Signal;HPM_P1;HPM_P2
2023/06/16 00:02:18;;;;;;;4.35;3.22;;;21.30;99.90;;;;;;1916918;75;21095;-82
2023/06/16 00:05:10;;;;;;;3.83;3.40;;;21.20;99.90;;;;;;1917764;73;21158;-81
2023/06/16 00:10:41;;;;;;;5.78;3.08;;;21.10;99.90;;;;;;1936768;72;22259;-81
2023/06/16 00:13:33;;;;;;;6.70;3.65;;;21.10;99.90;;;;;;1893963;75;21621;-81
2023/06/16 00:19:09;;;;;;;5.12;4.20;;;21.00;99.90;;;;;;1937459;72;28104;-81
2023/06/16 00:22:02;;;;;;;4.85;3.80;;;21.20;99.90;;;;;;1929553;73;21203;-81
2023/06/16 00:24:54;;;;;;;3.70;3.40;;;20.90;99.90;;;;;;1920791;73;21101;-81
2023/06/16 00:30:25;;;;;;;6.70;3.83;;;20.70;99.90;;;;;;1942837;72;22185;-81
2023/06/16 00:35:57;;;;;;;4.55;3.65;;;20.80;99.90;;;;;;1959650;72;22173;-81
2023/06/16 00:41:26;;;;;;;3.80;3.30;;;20.70;99.90;;;;;;1938044;72;22231;-81
2023/06/16 00:44:18;;;;;;;3.98;3.47;;;20.40;99.90;;;;;;1887580;75;21183;-81
2023/06/16 00:47:09;;;;;;;5.70;3.27;;;20.20;99.90;;;;;;1891238;75;21121;-81
2023/06/16 00:52:46;;;;;;;4.20;3.80;;;20.20;99.90;;;;;;1927267;72;38430;-81
2023/06/16 00:55:40;;;;;;;4.30;3.33;;;20.40;99.90;;;;;;1928809;73;21318;-81
2023/06/16 01:01:12;;;;;;;6.20;3.85;;;20.10;99.90;;;;;;1930154;72;22232;-81
2023/06/16 01:04:03;;;;;;;6.05;3.70;;;20.00;99.90;;;;;;1893706;75;21714;-81
2023/06/16 01:06:59;;;;;;;4.90;3.40;;;19.90;99.90;;;;;;1898383;75;21075;-81
2023/06/16 01:09:55;;;;;;;3.72;3.42;;;19.80;99.90;;;;;;1892175;75;21087;-80
2023/06/16 01:12:52;;;;;;;3.62;3.25;;;19.80;99.90;;;;;;1885542;75;21178;-81
2023/06/16 01:15:47;;;;;;;4.58;3.35;;;19.90;99.90;;;;;;1886609;75;21086;-81
2023/06/16 01:18:43;;;;;;;3.83;3.42;;;20.00;99.90;;;;;;1911031;75;21161;-81
2023/06/16 01:21:40;;;;;;;4.05;3.62;;;20.10;99.90;;;;;;1891920;75;21102;-81
2023/06/16 01:24:35;;;;;;;3.80;3.50;;;20.10;99.90;;;;;;1892927;73;21098;-81
2023/06/16 01:27:29;;;;;;;4.42;3.70;;;20.10;99.90;;;;;;1891274;75;21130;-81
2023/06/16 01:33:02;;;;;;;3.92;3.52;;;20.00;99.90;;;;;;1940253;72;22125;-82
2023/06/16 01:35:55;;;;;;;4.10;3.70;;;19.90;99.90;;;;;;1891417;75;21226;-81
2023/06/16 01:41:27;;;;;;;7.72;3.60;;;19.90;99.90;;;;;;1939334;72;22251;-81
2023/06/16 01:44:19;;;;;;;3.60;3.30;;;19.70;99.90;;;;;;1896261;75;21507;-81
2023/06/16 01:47:13;;;;;;;5.65;3.40;;;19.70;99.90;;;;;;1903570;75;21064;-81
2023/06/16 01:50:06;;;;;;;6.28;3.55;;;19.50;99.90;;;;;;1890828;75;21159;-81
2023/06/16 01:52:57;;;;;;;3.60;3.30;;;19.30;99.90;;;;;;1885074;75;21171;-81
2023/06/16 01:55:50;;;;;;;4.45;3.45;;;19.20;99.90;;;;;;1873640;76;21176;-81
2023/06/16 01:58:41;;;;;;;7.00;3.77;;;19.20;99.90;;;;;;1910174;75;21649;-81
2023/06/16 02:04:15;;;;;;;4.30;3.90;;;19.20;99.90;;;;;;1931593;72;22189;-81
2023/06/16 02:07:10;;;;;;;4.97;3.67;;;19.20;99.90;;;;;;1883848;75;21063;-81
2023/06/16 02:10:02;;;;;;;4.90;3.65;;;19.10;99.90;;;;;;1882218;75;21137;-81
2023/06/16 02:15:33;;;;;;;3.83;3.27;;;19.00;99.90;;;;;;1944897;72;22342;-81
2023/06/16 02:18:27;;;;;;;4.60;3.37;;;19.00;99.90;;;;;;1907114;74;21168;-82
2023/06/16 02:24:09;;;;;;;3.92;3.33;;;19.10;99.90;;;;;;1954736;72;22206;-81
2023/06/16 02:27:01;;;;;;;4.35;3.75;;;19.20;99.90;;;;;;1916889;73;21110;-81
2023/06/16 02:29:52;;;;;;;5.33;3.70;;;19.00;99.90;;;;;;1932192;73;21121;-80
2023/06/16 02:35:23;;;;;;;5.40;3.90;;;18.90;99.90;;;;;;1925098;72;22189;-81
2023/06/16 02:40:56;;;;;;;3.67;3.30;;;18.90;99.90;;;;;;1941439;72;22270;-81
2023/06/16 02:43:47;;;;;;;6.35;3.20;;;19.00;99.90;;;;;;1891507;75;21118;-81
2023/06/16 02:49:20;;;;;;;5.78;3.50;;;19.10;99.90;;;;;;1931587;72;22223;-80
2023/06/16 02:52:13;;;;;;;4.95;3.27;;;19.00;99.90;;;;;;1911058;75;21103;-81
2023/06/16 02:55:06;;;;;;;5.25;3.30;;;19.00;99.90;;;;;;1917957;74;21121;-81
2023/06/16 03:00:37;;;;;;;3.52;3.20;;;18.80;99.90;;;;;;1930242;72;22668;-81
2023/06/16 03:03:34;;;;;;;4.17;3.77;;;18.80;99.90;;;;;;1904618;74;21193;-80
2023/06/16 03:06:29;;;;;;;3.70;3.30;;;18.70;99.90;;;;;;1905350;75;21125;-81
2023/06/16 03:09:21;;;;;;;4.83;3.80;;;18.70;99.90;;;;;;1899698;75;21124;-81
2023/06/16 03:12:13;;;;;;;4.12;3.20;;;18.60;99.90;;;;;;1902772;75;21097;-81
2023/06/16 03:15:08;;;;;;;3.90;3.20;;;18.60;99.90;;;;;;1878758;75;21228;-80
2023/06/16 03:20:39;;;;;;;4.00;3.40;;;18.60;99.90;;;;;;1938030;72;22180;-80
2023/06/16 03:26:12;;;;;;;3.67;3.10;;;18.60;99.90;;;;;;1924807;72;22651;-80
2023/06/16 03:29:14;;;;;;;3.70;3.20;;;18.60;99.90;;;;;;1817296;78;21128;-81
2023/06/16 03:32:07;;;;;;;5.42;3.45;;;18.60;99.90;;;;;;1876673;75;21149;-81
2023/06/16 03:37:40;;;;;;;4.90;3.72;;;18.60;99.90;;;;;;1932168;72;22198;-81
2023/06/16 03:40:31;;;;;;;6.00;3.77;;;18.40;99.90;;;;;;1896093;75;21123;-81
2023/06/16 03:43:25;;;;;;;4.62;3.80;;;18.30;99.90;;;;;;1877385;75;21122;-81
2023/06/16 03:46:17;;;;;;;5.40;3.55;;;18.30;99.90;;;;;;1909754;75;21103;-81
2023/06/16 03:49:15;;;;;;;4.05;3.50;;;18.30;99.90;;;;;;1908257;74;21109;-81
2023/06/16 03:52:08;;;;;;;5.92;3.60;;;18.30;99.90;;;;;;1908431;75;21603;-81
2023/06/16 03:57:38;;;;;;;5.53;3.77;;;18.10;99.90;;;;;;1962522;72;22281;-81
2023/06/16 04:00:29;;;;;;;5.42;3.47;;;18.10;99.90;;;;;;1930099;73;21356;-81
2023/06/16 04:06:02;;;;;;;4.50;4.10;;;18.10;99.90;;;;;;1937376;72;22225;-81
2023/06/16 04:08:56;;;;;;;6.78;3.98;;;18.00;99.90;;;;;;1903196;75;21179;-80
2023/06/16 04:11:50;;;;;;;6.55;4.22;;;18.10;99.90;;;;;;1884192;75;21105;-81
2023/06/16 04:14:42;;;;;;;7.17;3.90;;;18.10;99.90;;;;;;1888730;74;21111;-81
2023/06/16 04:17:33;;;;;;;4.42;3.92;;;18.20;99.90;;;;;;1873951;75;21103;-81
2023/06/16 04:23:06;;;;;;;4.30;3.90;;;18.30;99.90;;;;;;1932942;72;22229;-81
2023/06/16 04:25:58;;;;;;;5.33;4.00;;;18.30;99.90;;;;;;1892490;74;21102;-81
2023/06/16 04:31:32;;;;;;;4.55;3.98;;;18.40;99.90;;;;;;1937832;72;22174;-81
2023/06/16 04:34:24;;;;;;;6.37;4.37;;;18.40;99.90;;;;;;1903241;75;21095;-81
2023/06/16 04:37:17;;;;;;;5.80;4.28;;;18.40;99.90;;;;;;1873409;75;21103;-81
2023/06/16 04:40:12;;;;;;;4.80;3.50;;;18.40;99.90;;;;;;1896663;75;21116;-81
2023/06/16 04:45:43;;;;;;;4.42;3.95;;;18.30;99.90;;;;;;1932372;72;22437;-81
2023/06/16 04:51:16;;;;;;;5.22;4.03;;;18.20;99.90;;;;;;1926264;72;22208;-81
2023/06/16 04:54:07;;;;;;;4.50;3.90;;;18.20;99.90;;;;;;1907162;75;21114;-80
2023/06/16 04:59:41;;;;;;;5.65;4.20;;;18.30;99.90;;;;;;1934195;72;22314;-81
2023/06/16 05:02:33;;;;;;;5.37;4.10;;;18.40;99.90;;;;;;1884699;75;21500;-80
2023/06/16 05:05:24;;;;;;;6.50;4.22;;;18.40;99.90;;;;;;1889864;75;21099;-80
2023/06/16 05:11:05;;;;;;;7.97;4.37;;;18.40;99.90;;;;;;1946489;72;22693;-83
2023/06/16 05:16:59;;;;;;;7.25;4.30;;;18.50;99.90;;;;;;1983414;71;22277;-83
2023/06/16 05:19:51;;;;;;;5.08;4.58;;;18.60;99.90;;;;;;1965012;72;21554;-83
2023/06/16 05:22:43;;;;;;;7.25;4.72;;;18.60;99.90;;;;;;2031022;70;21085;-83
2023/06/16 05:28:13;;;;;;;5.47;4.60;;;18.70;99.90;;;;;;1929951;72;22200;-84
2023/06/16 05:31:05;;;;;;;7.05;5.78;;;18.80;99.90;;;;;;1884864;75;21157;-84
2023/06/16 05:36:35;;;;;;;5.42;4.87;;;18.90;99.90;;;;;;1930910;72;22233;-83
2023/06/16 05:39:28;;;;;;;5.42;4.80;;;19.00;99.90;;;;;;1892513;75;21113;-83
2023/06/16 05:42:20;;;;;;;5.80;4.78;;;19.10;99.90;;;;;;1886663;75;21134;-79
2023/06/16 05:45:13;;;;;;;5.65;4.97;;;19.20;99.90;;;;;;1891260;75;21121;-79
2023/06/16 05:50:43;;;;;;;8.63;5.12;;;19.10;99.90;;;;;;1926580;72;22218;-79
2023/06/16 05:53:35;;;;;;;7.05;5.10;;;19.10;99.90;;;;;;1892636;73;21183;-79
2023/06/16 05:56:27;;;;;;;6.30;5.15;;;19.00;99.90;;;;;;1893703;73;21094;-79
2023/06/16 05:59:18;;;;;;;7.17;5.05;;;19.10;99.90;;;;;;1915102;75;21094;-80
2023/06/16 06:02:10;;;;;;;7.50;5.17;;;19.10;99.90;;;;;;1905400;75;21136;-78
2023/06/16 06:05:06;;;;;;;5.62;4.80;;;19.10;99.90;;;;;;1913758;74;21105;-82
2023/06/16 06:07:58;;;;;;;6.25;5.08;;;19.30;99.90;;;;;;1898817;75;21183;-83
2023/06/16 06:10:51;;;;;;;6.15;5.55;;;19.30;99.90;;;;;;1926124;73;21094;-82
2023/06/16 06:13:44;;;;;;;6.50;5.20;;;19.40;99.90;;;;;;1916576;73;21099;-82
2023/06/16 06:16:37;;;;;;;5.60;4.87;;;19.50;99.90;;;;;;1913719;73;21565;-83
2023/06/16 06:22:11;;;;;;;6.33;5.20;;;19.80;99.90;;;;;;1940550;72;23005;-83
2023/06/16 06:27:42;;;;;;;6.75;4.78;;;19.90;99.90;;;;;;1944019;72;22152;-83
2023/06/16 06:30:34;;;;;;;8.03;4.65;;;20.00;99.90;;;;;;1933484;73;21130;-82
2023/06/16 06:36:08;;;;;;;7.75;5.15;;;20.20;99.90;;;;;;1945130;72;22213;-83
2023/06/16 06:41:40;;;;;;;6.55;4.70;;;20.30;99.90;;;;;;1944446;72;22664;-83
2023/06/16 06:44:39;;;;;;;5.85;4.80;;;20.30;99.90;;;;;;1894326;73;21223;-81
2023/06/16 06:47:35;;;;;;;5.83;5.28;;;20.40;99.90;;;;;;1886624;75;21095;-82
2023/06/16 06:50:30;;;;;;;6.75;5.30;;;20.50;99.90;;;;;;1884350;75;21093;-82
2023/06/16 06:53:22;;;;;;;6.60;5.55;;;20.50;99.90;;;;;;1888644;73;21142;-82
2023/06/16 06:56:15;;;;;;;6.65;5.35;;;20.60;99.90;;;;;;1884414;75;21098;-82
2023/06/16 06:59:07;;;;;;;8.25;5.10;;;20.60;99.90;;;;;;1906891;75;21176;-82
2023/06/16 07:06:25;;;;;;;5.80;5.20;;;20.80;99.90;;;;;;1865726;75;21292;-81
2023/06/16 07:09:41;;;;;;;6.47;5.50;;;20.90;99.90;;;;;;1870538;75;21094;-82
2023/06/16 07:12:32;;;;;;;6.90;6.05;;;21.00;99.90;;;;;;1895176;75;21106;-82
2023/06/16 07:15:23;;;;;;;7.25;5.78;;;21.10;99.90;;;;;;1894620;73;21515;-82
2023/06/16 07:21:05;;;;;;;7.17;5.67;;;21.20;99.90;;;;;;1944924;72;22235;-81
2023/06/16 07:23:56;;;;;;;7.33;4.90;;;21.20;99.90;;;;;;1903760;75;21106;-80
2023/06/16 07:26:49;;;;;;;6.50;4.92;;;21.10;99.90;;;;;;1882241;75;22077;-82
2023/06/16 07:29:40;;;;;;;5.72;4.55;;;21.10;99.90;;;;;;1903860;73;21215;-82
2023/06/16 07:32:31;;;;;;;6.75;4.97;;;21.10;99.90;;;;;;1886655;75;21086;-82
2023/06/16 07:35:23;;;;;;;5.47;4.87;;;21.00;99.90;;;;;;1896747;75;21048;-82
2023/06/16 07:40:54;;;;;;;6.30;4.50;;;20.90;99.90;;;;;;1936329;72;22137;-81
2023/06/16 07:43:47;;;;;;;7.08;4.83;;;21.00;99.90;;;;;;1889517;75;21209;-81
2023/06/16 07:46:39;;;;;;;6.20;4.70;;;21.10;99.90;;;;;;1893452;75;21138;-81
2023/06/16 07:49:31;;;;;;;5.00;4.50;;;21.20;99.90;;;;;;1913793;73;21094;-81
2023/06/16 07:52:22;;;;;;;4.62;4.22;;;21.30;99.90;;;;;;1902442;75;21186;-81
2023/06/16 07:55:14;;;;;;;5.10;4.12;;;21.30;99.90;;;;;;1907561;75;21742;-81
2023/06/16 08:00:44;;;;;;;5.17;4.40;;;21.40;99.90;;;;;;1936652;72;22205;-81
2023/06/16 08:03:35;;;;;;;7.08;4.60;;;21.50;99.90;;;;;;1902225;75;21157;-81
2023/06/16 08:06:27;;;;;;;5.08;4.42;;;21.60;99.90;;;;;;1899856;75;21452;-81
2023/06/16 08:11:59;;;;;;;6.03;4.70;;;21.50;99.90;;;;;;1936170;72;22240;-81
2023/06/16 08:14:50;;;;;;;6.90;5.00;;;21.60;99.90;;;;;;1905526;75;21168;-81
2023/06/16 08:17:43;;;;;;;6.53;5.17;;;21.70;99.90;;;;;;1886714;75;21180;-81
2023/06/16 08:20:35;;;;;;;6.92;5.75;;;21.70;99.90;;;;;;1912757;75;21168;-81
2023/06/16 08:23:27;;;;;;;7.08;5.42;;;21.80;99.90;;;;;;1907907;75;21094;-82
2023/06/16 08:26:19;;;;;;;6.08;4.85;;;21.90;99.90;;;;;;1886783;75;21100;-82
2023/06/16 08:29:12;;;;;;;6.92;5.00;;;21.90;99.90;;;;;;1889210;75;21123;-82
2023/06/16 08:32:06;;;;;;;7.55;4.97;;;22.10;99.90;;;;;;1895582;75;21117;-82
2023/06/16 08:37:37;;;;;;;6.03;4.25;;;22.30;99.90;;;;;;1937565;72;22133;-81
2023/06/16 08:40:29;;;;;;;6.75;4.30;;;22.40;99.90;;;;;;1907232;75;21616;-81
2023/06/16 08:45:59;;;;;;;5.70;4.65;;;22.50;99.90;;;;;;1940907;72;22236;-81
2023/06/16 08:51:34;;;;;;;6.92;4.47;;;22.40;99.90;;;;;;1932405;72;22687;-82
2023/06/16 08:54:30;;;;;;;4.33;4.03;;;22.60;99.90;;;;;;1897342;75;21121;-82
2023/06/16 08:57:22;;;;;;;6.58;4.87;;;22.60;99.90;;;;;;1891156;75;21175;-82
2023/06/16 09:00:15;;;;;;;5.75;4.60;;;22.60;99.90;;;;;;1891069;75;21641;-83
2023/06/16 09:03:09;;;;;;;5.47;4.30;;;22.70;99.90;;;;;;1896731;75;21531;-82
2023/06/16 09:06:01;;;;;;;6.12;4.60;;;22.70;99.90;;;;;;1905144;75;21135;-82
2023/06/16 09:11:34;;;;;;;5.40;4.58;;;22.90;99.90;;;;;;1935570;72;22255;-81
2023/06/16 09:14:31;;;;;;;5.78;4.50;;;23.10;99.90;;;;;;1889913;73;21211;-81
2023/06/16 09:17:27;;;;;;;7.45;4.65;;;23.10;99.90;;;;;;1894332;75;21084;-80
2023/06/16 09:23:00;;;;;;;6.28;4.50;;;23.30;99.90;;;;;;1952869;72;22299;-81
2023/06/16 09:25:55;;;;;;;5.28;4.10;;;23.50;99.90;;;;;;1883621;76;21051;-81
2023/06/16 09:28:47;;;;;;;7.03;4.30;;;23.60;99.90;;;;;;1895179;75;21099;-81
2023/06/16 09:31:39;;;;;;;5.03;3.98;;;23.70;99.90;;;;;;1887614;75;21062;-81
2023/06/16 09:34:36;;;;;;;5.80;4.35;;;23.70;99.90;;;;;;1900054;75;21224;-81
2023/06/16 09:37:27;;;;;;;4.80;3.95;;;23.80;99.90;;;;;;1883440;76;21262;-81
2023/06/16 09:40:21;;;;;;;6.28;4.53;;;23.90;99.90;;;;;;1884899;75;21171;-82
2023/06/16 09:43:13;;;;;;;4.28;3.87;;;24.00;99.90;;;;;;1889508;75;21181;-81
2023/06/16 09:46:05;;;;;;;5.03;4.50;;;24.00;99.90;;;;;;1900533;73;21149;-81
2023/06/16 09:48:56;;;;;;;6.28;3.98;;;24.20;99.90;;;;;;1886077;75;21097;-81
2023/06/16 09:51:59;;;;;;;4.95;3.90;;;24.30;99.90;;;;;;1879682;76;21093;-82
2023/06/16 09:54:50;;;;;;;6.22;4.08;;;24.40;99.90;;;;;;1892210;75;21090;-82
2023/06/16 09:57:51;;;;;;;4.35;3.95;;;24.50;99.90;;;;;;1896482;75;21172;-81
2023/06/16 10:00:45;;;;;;;4.25;3.72;;;24.50;99.90;;;;;;1896744;73;21059;-81
2023/06/16 10:03:39;;;;;;;4.47;4.08;;;24.50;99.90;;;;;;1898657;75;21196;-82
2023/06/16 10:06:36;;;;;;;4.03;3.62;;;24.60;99.90;;;;;;1893888;75;21110;-82
2023/06/16 10:09:30;;;;;;;4.90;4.10;;;24.60;99.90;;;;;;1898496;75;21098;-82
2023/06/16 10:12:24;;;;;;;5.25;4.22;;;24.60;99.90;;;;;;1892115;75;21670;-82
2023/06/16 10:15:19;;;;;;;4.70;3.70;;;24.70;99.90;;;;;;1910496;75;21648;-81
2023/06/16 10:18:14;;;;;;;4.50;4.10;;;24.80;99.90;;;;;;1906963;75;21396;-81
2023/06/16 10:21:06;;;;;;;5.70;4.08;;;24.90;99.90;;;;;;1883520;75;21092;-82
2023/06/16 10:23:58;;;;;;;9.63;4.33;;;25.00;99.90;;;;;;1888819;75;21125;-81
2023/06/16 10:26:50;;;;;;;6.10;4.70;;;25.00;99.90;;;;;;1909999;75;21510;-82
2023/06/16 10:29:46;;;;;;;6.17;4.42;;;24.90;99.90;;;;;;1886293;75;21093;-81
2023/06/16 10:32:38;;;;;;;5.42;4.03;;;25.00;99.90;;;;;;1895938;75;21095;-81
2023/06/16 10:35:30;;;;;;;8.65;4.22;;;25.10;99.90;;;;;;1892857;75;21110;-81
2023/06/16 10:38:27;;;;;;;4.80;4.40;;;25.10;99.90;;;;;;1901572;75;21147;-81
2023/06/16 10:41:20;;;;;;;4.80;4.25;;;25.20;99.90;;;;;;1895000;75;21168;-81
2023/06/16 10:44:26;;;;;;;5.33;4.50;;;25.30;99.90;;;;;;1898496;75;21653;-81
2023/06/16 10:47:45;;;;;;;5.33;4.50;;;25.30;99.90;;;;;;1895899;75;21138;-81
2023/06/16 10:50:43;;;;;;;5.60;4.33;;;25.50;99.90;;;;;;1903166;75;21122;-81
2023/06/16 10:56:22;;;;;;;5.53;4.08;;;25.70;99.90;;;;;;1924954;72;22178;-80
2023/06/16 10:59:17;;;;;;;4.85;4.35;;;25.70;99.90;;;;;;1880329;75;21150;-81
2023/06/16 11:02:12;;;;;;;4.50;4.10;;;25.80;99.90;;;;;;1890669;73;21089;-79
2023/06/16 11:05:22;;;;;;;4.20;3.80;;;25.90;99.90;;;;;;1901204;75;21044;-79
2023/06/16 11:08:15;;;;;;;6.37;4.10;;;25.80;99.90;;;;;;1900138;75;21197;-79
2023/06/16 11:11:08;;;;;;;7.95;4.20;;;25.90;99.90;;;;;;1882854;76;21098;-78
2023/06/16 11:14:01;;;;;;;4.30;3.90;;;26.10;99.90;;;;;;1890824;75;21134;-78
2023/06/16 11:16:55;;;;;;;5.28;3.15;;;26.10;99.90;;;;;;1892484;75;21082;-78
2023/06/16 11:19:50;;;;;;;3.45;3.02;;;26.00;99.90;;;;;;1896551;75;21172;-78
2023/06/16 11:22:42;;;;;;;4.28;3.83;;;26.20;99.90;;;;;;1898587;75;21336;-78
2023/06/16 11:25:34;;;;;;;5.67;3.70;;;26.20;99.90;;;;;;1894293;75;21098;-78
2023/06/16 11:28:26;;;;;;;5.50;3.67;;;26.30;99.90;;;;;;1894243;75;21110;-78
2023/06/16 11:31:19;;;;;;;4.42;4.00;;;26.30;99.90;;;;;;1910988;75;21113;-78
2023/06/16 11:34:10;;;;;;;4.67;4.10;;;26.40;99.90;;;;;;1888185;75;21180;-77
2023/06/16 11:37:02;;;;;;;7.83;4.40;;;26.50;99.90;;;;;;1895490;75;21155;-78
2023/06/16 11:39:54;;;;;;;7.03;3.90;;;26.70;99.90;;;;;;1906476;75;21144;-79
2023/06/16 11:42:47;;;;;;;4.00;3.70;;;26.80;99.90;;;;;;1933317;73;21117;-78
2023/06/16 11:46:00;;;;;;;4.85;3.92;;;26.80;99.90;;;;;;1912724;73;21101;-78
2023/06/16 11:48:52;;;;;;;6.97;3.60;;;26.60;99.90;;;;;;1910169;75;21099;-78
2023/06/16 11:51:44;;;;;;;4.33;3.92;;;26.80;99.90;;;;;;1914250;73;21085;-78
2023/06/16 11:54:37;;;;;;;5.45;4.00;;;26.90;99.90;;;;;;1892807;75;21106;-77
2023/06/16 11:57:28;;;;;;;4.12;3.75;;;27.10;99.90;;;;;;1897151;75;21236;-79
2023/06/16 12:00:32;;;;;;;4.05;3.33;;;27.00;99.90;;;;;;1885322;75;21114;-78
2023/06/16 12:03:31;;;;;;;4.45;3.55;;;27.00;99.90;;;;;;1883845;74;21198;-77
2023/06/16 12:06:23;;;;;;;3.87;3.42;;;27.10;99.90;;;;;;1902225;75;21090;-78
2023/06/16 12:09:22;;;;;;;3.37;3.08;;;27.00;99.90;;;;;;1895632;75;21650;-78
2023/06/16 12:14:57;;;;;;;8.48;3.90;;;27.20;99.90;;;;;;1925862;72;22201;-78
2023/06/16 12:17:49;;;;;;;5.28;3.90;;;27.20;99.90;;;;;;1883156;75;21599;-80
2023/06/16 12:20:42;;;;;;;6.10;3.58;;;27.20;99.90;;;;;;1899463;75;21079;-80
2023/06/16 12:23:38;;;;;;;4.05;3.17;;;27.20;99.90;;;;;;1899308;75;21058;-78
2023/06/16 12:26:35;;;;;;;6.50;3.27;;;27.10;99.90;;;;;;1884359;75;21111;-79
2023/06/16 12:29:29;;;;;;;4.67;3.50;;;27.10;99.90;;;;;;1885380;75;21154;-78
2023/06/16 12:32:22;;;;;;;4.45;3.75;;;27.30;99.90;;;;;;1883315;75;21121;-78
2023/06/16 12:35:15;;;;;;;6.53;3.87;;;27.40;99.90;;;;;;1899789;75;21122;-80
2023/06/16 12:38:07;;;;;;;6.30;3.40;;;27.20;99.50;;;;;;1896898;75;21130;-79
2023/06/16 12:40:58;;;;;;;4.58;3.35;;;27.30;99.90;;;;;;1909516;75;21135;-80
2023/06/16 12:47:01;;;;;;;3.95;3.60;;;27.40;97.80;;;;;;1974700;72;22333;-78
2023/06/16 12:49:54;;;;;;;4.03;3.47;;;27.40;97.70;;;;;;1927012;73;21103;-78
2023/06/16 12:52:47;;;;;;;3.50;3.20;;;27.60;98.10;;;;;;1922275;73;21125;-78
2023/06/16 12:55:40;;;;;;;3.92;3.17;;;27.60;96.70;;;;;;1915637;75;21602;-79
2023/06/16 12:58:31;;;;;;;3.37;2.87;;;27.70;97.10;;;;;;1938766;73;21121;-79
2023/06/16 13:01:23;;;;;;;3.83;3.30;;;27.80;96.50;;;;;;1915505;75;21184;-78
2023/06/16 13:04:19;;;;;;;4.33;3.10;;;27.70;96.10;;;;;;1927047;73;21103;-78
2023/06/16 13:07:25;;;;;;;4.00;3.02;;;27.80;95.50;;;;;;1927464;73;21140;-78
2023/06/16 13:10:17;;;;;;;3.17;2.62;;;27.90;95.30;;;;;;1916219;75;21229;-78
2023/06/16 13:13:09;;;;;;;3.95;3.17;;;27.90;94.50;;;;;;1924705;73;21124;-80
2023/06/16 13:16:19;;;;;;;4.47;3.25;;;27.80;94.10;;;;;;1919861;73;21118;-79
2023/06/16 13:21:56;;;;;;;3.10;2.80;;;27.80;94.60;;;;;;1953856;72;22263;-78
2023/06/16 13:24:49;;;;;;;4.12;2.80;;;28.00;93.40;;;;;;1895384;75;21133;-79
2023/06/16 13:27:40;;;;;;;3.83;2.95;;;27.90;92.50;;;;;;1894341;75;21159;-79
2023/06/16 13:30:34;;;;;;;4.55;3.20;;;28.10;93.40;;;;;;1892015;75;21074;-78
2023/06/16 13:33:28;;;;;;;3.27;2.98;;;28.30;92.10;;;;;;1881083;76;21152;-79
2023/06/16 13:36:21;;;;;;;3.25;2.77;;;28.20;91.20;;;;;;1904971;75;21160;-79
2023/06/16 13:39:15;;;;;;;4.00;2.90;;;28.30;90.50;;;;;;1887729;75;21106;-79
2023/06/16 13:42:08;;;;;;;3.52;2.98;;;28.50;90.00;;;;;;1913988;75;21156;-79
2023/06/16 13:45:03;;;;;;;3.17;2.50;;;28.50;86.80;;;;;;1886279;75;21176;-80
2023/06/16 13:47:55;;;;;;;3.00;2.80;;;28.70;87.30;;;;;;1882643;76;21203;-79
2023/06/16 13:50:47;;;;;;;3.45;2.60;;;28.90;84.30;;;;;;1883174;75;21151;-80
2023/06/16 13:53:39;;;;;;;3.50;2.60;;;29.10;82.90;;;;;;1905382;75;21205;-80
2023/06/16 13:56:30;;;;;;;2.98;2.22;;;29.20;80.80;;;;;;1901364;75;21091;-79
2023/06/16 13:59:22;;;;;;;2.90;2.50;;;29.40;80.50;;;;;;1885069;75;21110;-79
2023/06/16 14:02:14;;;;;;;3.70;2.60;;;29.40;78.70;;;;;;1886166;75;21113;-78
2023/06/16 14:05:08;;;;;;;2.52;2.33;;;29.50;78.10;;;;;;1891478;73;21395;-79
2023/06/16 14:08:01;;;;;;;2.92;2.67;;;29.80;78.10;;;;;;1894212;75;21111;-79
2023/06/16 14:10:52;;;;;;;3.50;2.60;;;29.70;78.40;;;;;;1900171;75;21075;-79
2023/06/16 14:13:44;;;;;;;2.90;2.60;;;30.20;77.90;;;;;;1895950;75;21046;-79
2023/06/16 14:16:37;;;;;;;3.65;2.67;;;30.30;76.90;;;;;;1893058;75;21106;-79
2023/06/16 14:19:28;;;;;;;3.10;2.80;;;30.40;76.80;;;;;;1891748;75;21598;-79
2023/06/16 14:22:21;;;;;;;3.50;2.80;;;30.30;75.80;;;;;;1916450;74;21207;-79
2023/06/16 14:27:53;;;;;;;4.00;2.70;;;30.40;74.00;;;;;;1950302;72;22221;-79
2023/06/16 14:30:45;;;;;;;3.52;2.40;;;30.30;73.90;;;;;;1910091;73;21162;-79
2023/06/16 14:33:37;;;;;;;2.72;2.52;;;30.40;72.90;;;;;;1883275;75;21415;-80
2023/06/16 14:36:28;;;;;;;4.00;2.72;;;30.40;72.90;;;;;;1886258;75;21176;-78
2023/06/16 14:39:20;;;;;;;3.45;2.60;;;30.50;72.90;;;;;;1896052;75;21508;-79
2023/06/16 14:42:11;;;;;;;3.85;2.80;;;30.60;72.70;;;;;;1900606;75;21098;-80
2023/06/16 14:47:43;;;;;;;2.80;2.58;;;31.00;71.40;;;;;;1940421;72;22285;-79
2023/06/16 14:50:35;;;;;;;2.77;2.58;;;30.80;71.20;;;;;;1916157;75;21483;-78
2023/06/16 14:53:29;;;;;;;3.55;2.40;;;31.30;71.20;;;;;;1916425;75;21078;-79
2023/06/16 14:56:21;;;;;;;3.40;2.72;;;31.20;69.80;;;;;;1906676;74;21116;-79
2023/06/16 14:59:12;;;;;;;3.80;2.58;;;31.30;69.40;;;;;;1894668;75;21150;-78
2023/06/16 15:02:17;;;;;;;3.60;2.70;;;31.30;68.70;;;;;;1918448;74;21193;-79
2023/06/16 15:05:10;;;;;;;2.90;2.70;;;31.40;68.40;;;;;;1916929;74;21609;-79
2023/06/16 15:08:01;;;;;;;3.08;2.77;;;32.00;67.70;;;;;;1918787;74;21398;-79
2023/06/16 15:10:53;;;;;;;2.98;2.77;;;32.40;67.10;;;;;;1900879;75;21187;-79
2023/06/16 15:13:44;;;;;;;3.25;2.75;;;32.30;66.40;;;;;;1915707;75;21125;-78
2023/06/16 15:16:37;;;;;;;3.30;3.00;;;32.10;66.30;;;;;;1926860;74;21141;-78
2023/06/16 15:19:28;;;;;;;3.22;2.90;;;32.20;66.20;;;;;;1894867;74;21184;-78
2023/06/16 15:22:20;;;;;;;3.67;2.75;;;32.60;65.70;;;;;;1908654;75;21172;-78
2023/06/16 15:25:12;;;;;;;3.30;2.75;;;32.80;64.80;;;;;;1897434;74;21171;-78
2023/06/16 15:28:03;;;;;;;5.00;3.17;;;33.10;64.10;;;;;;1920796;74;21188;-79
2023/06/16 15:30:58;;;;;;;3.40;2.80;;;33.30;64.10;;;;;;1906756;73;21133;-79
2023/06/16 15:33:57;;;;;;;3.12;2.83;;;33.20;63.10;;;;;;1923087;74;21140;-80
2023/06/16 15:36:49;;;;;;;3.20;2.90;;;32.70;63.20;;;;;;1884455;75;21119;-81
2023/06/16 15:39:40;;;;;;;4.55;2.75;;;32.50;63.40;;;;;;1907687;74;21109;-80
2023/06/16 15:42:32;;;;;;;3.72;2.75;;;32.80;63.40;;;;;;1910264;75;21553;-80
2023/06/16 15:45:23;;;;;;;3.45;3.12;;;33.10;63.00;;;;;;1917932;74;21147;-81
2023/06/16 15:48:15;;;;;;;3.92;3.02;;;32.90;62.60;;;;;;1906932;74;21170;-81
2023/06/16 15:51:07;;;;;;;3.10;2.80;;;32.70;62.90;;;;;;1882068;75;21167;-81
2023/06/16 15:53:59;;;;;;;4.00;2.92;;;32.80;62.40;;;;;;1910033;74;21088;-81
2023/06/16 15:56:50;;;;;;;4.78;3.00;;;32.90;61.30;;;;;;1887233;75;21099;-80
2023/06/16 15:59:46;;;;;;;2.83;2.62;;;32.70;62.00;;;;;;1894968;73;21134;-80
2023/06/16 16:02:39;;;;;;;3.80;2.85;;;33.10;61.50;;;;;;1918399;74;21255;-80
2023/06/16 16:05:31;;;;;;;4.55;2.75;;;32.70;62.60;;;;;;1903916;74;21113;-81
2023/06/16 16:08:23;;;;;;;3.67;3.12;;;33.20;61.70;;;;;;1894163;74;21716;-81
2023/06/16 16:11:14;;;;;;;3.40;3.10;;;32.80;61.10;;;;;;1898655;74;21478;-81
2023/06/16 16:14:08;;;;;;;5.12;2.42;;;32.50;62.10;;;;;;1916008;74;21117;-81
2023/06/16 16:16:59;;;;;;;3.72;2.83;;;32.80;62.60;;;;;;1904842;75;21592;-80
2023/06/16 16:19:56;;;;;;;3.40;2.50;;;32.90;61.50;;;;;;1908996;74;21117;-81
2023/06/16 16:22:49;;;;;;;5.42;2.92;;;32.60;62.00;;;;;;1899502;74;21146;-80
2023/06/16 16:25:40;;;;;;;3.10;2.80;;;32.90;61.70;;;;;;1930553;74;21613;-81
2023/06/16 16:28:31;;;;;;;3.55;3.25;;;33.10;61.50;;;;;;1921799;74;21550;-80
2023/06/16 16:31:23;;;;;;;4.17;2.95;;;32.90;61.70;;;;;;1893815;74;21543;-80
2023/06/16 16:50:03;;;;;;;3.95;3.20;;;32.20;62.50;;;;;;1964348;72;22310;-80
2023/06/16 16:53:05;;;;;;;3.35;3.00;;;31.90;63.50;;;;;;1920196;73;21745;-79
2023/06/16 16:55:57;;;;;;;4.50;3.20;;;31.50;64.60;;;;;;1916429;75;21090;-79
2023/06/16 16:58:49;;;;;;;3.47;3.00;;;31.10;65.40;;;;;;1918170;73;21135;-80
2023/06/16 17:01:54;;;;;;;3.92;3.60;;;32.10;64.30;;;;;;1926037;73;21172;-79
2023/06/16 17:07:34;;;;;;;3.92;3.02;;;32.20;63.20;;;;;;1926092;72;22217;-79
2023/06/16 17:10:26;;;;;;;4.00;3.25;;;32.10;62.40;;;;;;1886677;75;21150;-82
2023/06/16 17:13:39;;;;;;;3.90;3.58;;;32.10;63.30;;;;;;1886987;75;21136;-80
2023/06/16 17:19:11;;;;;;;3.87;3.58;;;31.80;64.20;;;;;;1942163;72;22600;-79
2023/06/16 17:22:05;;;;;;;3.47;3.20;;;31.80;64.70;;;;;;1917574;73;21094;-80
2023/06/16 17:24:56;;;;;;;3.17;2.92;;;31.70;65.00;;;;;;1917922;73;21125;-80
2023/06/16 17:27:50;;;;;;;3.67;3.22;;;31.40;65.20;;;;;;1923374;73;21070;-80
2023/06/16 17:30:43;;;;;;;3.83;3.30;;;31.30;65.50;;;;;;1926047;73;21139;-80
2023/06/16 17:33:38;;;;;;;3.70;3.20;;;31.00;65.50;;;;;;1923406;73;21158;-80
2023/06/16 17:39:08;;;;;;;3.65;3.25;;;30.50;67.00;;;;;;1946268;72;22190;-80
2023/06/16 17:44:49;;;;;;;3.60;3.30;;;29.90;67.20;;;;;;1960904;72;22132;-80
2023/06/16 17:47:41;;;;;;;3.42;3.12;;;29.80;67.70;;;;;;1916921;73;21139;-80
2023/06/16 17:53:10;;;;;;;3.30;3.00;;;29.60;67.40;;;;;;1925525;72;22240;-79